Lodge, SC (29082)

12:48 AM EST on February 10, 2016 (GMT -0500)
KQ4WH, Skunkworks | | Change Station
CLOSE
Current Station
Personal Weather Station
Location: Smoaks, SC
Elevation: 108 ft
Nearby Weather Stations
Active Advisory: Flood Warning

Elev 108 ft 33.09 °N, 80.81 °W | Updated 17 seconds ago

Clear
Clear
33.6 °F
Feels Like 31 °F
N
3.3
Wind Variable Wind from WNW
Gusts 12.1 mph

Today
High -- | Low -- °F
--% Chance of Precip.
Yesterday
High -- | Low -- °F
Precip. -- in
Pressure 29.99 in
Visibility 10.0 miles
Clouds Clear
Windchill 31 °F
Dew Point 23 °F
Humidity 64%
Rainfall 0.00 in
Snow Depth Not available.
7:12 AM 6:04 PM
Waxing Crescent, 4% visible
METAR KRBW 100535Z AUTO 26007KT 10SM CLR 02/M06 A2999 RMK AO2
Pressure 29.99 in
Visibility 10.0 miles
Clouds Clear
Windchill 31 °F
Dew Point 23 °F
Humidity 64%
Rainfall 0.00 in
Snow Depth Not available.
7:12 AM 6:04 PM
Waxing Crescent, 4% visible
METAR KRBW 100535Z AUTO 26007KT 10SM CLR 02/M06 A2999 RMK AO2

10-Day Weather Forecast

Almanac

Astronomy

Feb. 10, 2016 Rise Set
Actual Time
Civil Twilight
Nautical Twilight
Astronomical Twilight
Moon
Length of Visible Light
Length of Day
Tomorrow will be .
, % of the Moon is Illuminated

Today's Extremes

State Highs State Lows

Community

WunderPhotos

Upload Photos

1,891,823 photos uploaded!

WunderBlog® & News

Nearby

Air Quality

  Air Quality AQ Index Pollutant
Not available.

Snow Depth

Station Depth Elevation

Earthquake Activity

City Distance Mag. Time & Date
Minimum magnitude displayed is 2.5.

Coastal Water Temperatures

Place Temperature

Stations

Nearby Weather Stations

Station Location Temp. Windchill Dew Point Humidity Wind Precip. Elev Updated Type
                   

Watches & Warnings

Flood Warning
Issued: 8:30 PM EST Feb. 9, 2016 – National Weather Service

The Flood Warning continues for
the edisto river near Givhans Ferry.
* At 7 PM Tuesday the stage was 13.7 feet.
* Flood stage is 10.0 feet.
* Moderate flooding is occurring.
* Forecast, the river will rise to near 13.8 feet by early Wednesday
morning then begin a slow fall.
* At 14.2 feet, numerous homes along happiness Lane are flooded. Water
covers most of hideaway Lane.


Lat... Lon 3304 8065 3311 8062 3308 8036 3286 8036
          3286 8045 3302 8044